Drachten Airfield

EHDR · Friesland, Holandia

7 października 2022

Czas Kod Pogoda Temp. Widoczność Sufit Wiatr METAR/SPECI
11:25
V
14 °C 10 km+ - Var Var 24 kt METAR EHMA 070925Z AUTO VRB24KT 9999 NSC 14/12 Q1019
10:55
V
13 °C 10 km+ - Var Var 26 kt METAR EHMA 070855Z AUTO VRB26KT 9999 NSC 13/12 Q1019
10:25
V
13 °C 10 km+ - Var Var 26 kt METAR EHMA 070825Z AUTO VRB26KT 9999 NSC 13/12 Q1019
09:55
V
12 °C 10 km+ - 200° 200° 25 kt METAR EHMA 070755Z AUTO 20025KT 150V270 9999 NSC 12/11 Q1020
09:25
V
12 °C 10 km+ - 200° 200° 23 kt METAR EHMA 070725Z AUTO 20023KT 160V250 9999 FEW019 12/11 Q1020
08:55
V
12 °C 10 km+ - 200° 200° 24 kt METAR EHMA 070655Z AUTO 20024KT 180V260 9999 FEW021 12/11 Q1020 RE//
08:25
L
11 °C 0 m - 200° 200° 24 kt METAR EHMA 070625Z AUTO 20024KT 170V240 //// // FEW005 11/11 Q1020
07:55
V
11 °C 10 km+ - 200° 200° 22 kt METAR EHMA 070555Z AUTO 20022KT 160V240 9999 FEW003 11/10 Q1020
07:25
L
12 °C 0 m - 200° 200° 23 kt METAR EHMA 070525Z AUTO 20023KT 170V250 //// // NSC 12/11 Q1020
06:55
V
12 °C 10 km+ - 200° 200° 23 kt METAR EHMA 070455Z AUTO 20023KT 180V240 9999 NSC 12/11 Q1020
06:25
V
12 °C 10 km+ - 200° 200° 22 kt METAR EHMA 070425Z AUTO 20022KT 140V270 9999 NSC 12/11 Q1021
05:55
V
12 °C 10 km+ - 200° 200° 23 kt METAR EHMA 070355Z AUTO 20023KT 170V250 9999 NCD 12/11 Q1021
05:25
V
12 °C 10 km+ - 200° 200° 22 kt METAR EHMA 070325Z AUTO 20022KT 150V270 9999 NCD 12/10 Q1021
04:55
V
12 °C 10 km+ - 200° 200° 24 kt METAR EHMA 070255Z AUTO 20024KT 160V250 9999 NCD 12/10 Q1021
04:25
V
12 °C 10 km+ - 210° 210° 24 kt METAR EHMA 070225Z AUTO 21024KT 170V290 9999 NCD 12/10 Q1022
03:55
V
12 °C 10 km+ - Var Var 22 kt METAR EHMA 070155Z AUTO VRB22KT 9999 NCD 12/10 Q1022
03:25
V
12 °C 10 km+ - 210° 210° 24 kt METAR EHMA 070125Z AUTO 21024KT 110V270 9999 NCD 12/10 Q1023
02:55
V
12 °C 10 km+ - Var Var 24 kt METAR EHMA 070055Z AUTO VRB24KT 9999 NCD 12/10 Q1023
02:25
V
12 °C 10 km+ - 210° 210° 24 kt METAR EHMA 070025Z AUTO 21024KT 130V260 9999 NCD 12/10 Q1023
01:55
V
12 °C 10 km+ - 200° 200° 24 kt METAR EHMA 062355Z AUTO 20024KT 170V260 9999 NCD 12/10 Q1024
01:25
V
12 °C 10 km+ - Var Var 20 kt METAR EHMA 062325Z AUTO VRB20KT 9999 NCD 12/10 Q1024
00:55
V
12 °C 10 km+ - 200° 200° 22 kt METAR EHMA 062255Z AUTO 20022KT 150V270 9999 NSC 12/09 Q1024
00:25
V
12 °C 10 km+ - 200° 200° 22 kt METAR EHMA 062225Z AUTO 20022KT 160V260 9999 NSC 12/09 Q1025

6 października 2022

Czas Kod Pogoda Temp. Widoczność Sufit Wiatr METAR/SPECI
23:55
V
13 °C 10 km+ - Var Var 24 kt METAR EHMA 062155Z AUTO VRB24KT 9999 NSC 13/09 Q1025
23:25
V
13 °C 10 km+ - 210° 210° 24 kt METAR EHMA 062125Z AUTO 21024KT 160V280 9999 NSC 13/09 Q1025
22:55
V
13 °C 10 km+ - 210° 210° 23 kt METAR EHMA 062055Z AUTO 21023KT 120V280 9999 NSC 13/09 Q1026
22:25
V
13 °C 10 km+ - Var Var 22 kt METAR EHMA 062025Z AUTO VRB22KT 9999 NCD 13/09 Q1026
21:55
V
13 °C 10 km+ - Var Var 21 kt METAR EHMA 061955Z AUTO VRB21KT 9999 NCD 13/09 Q1026
21:25
V
13 °C 10 km+ - Var Var 21 kt METAR EHMA 061925Z AUTO VRB21KT 9999 FEW025 13/09 Q1026
20:55
V
13 °C 10 km+ - Var Var 18 kt METAR EHMA 061855Z AUTO VRB18KT 9999 FEW025 13/09 Q1026
20:25
V
14 °C 10 km+ - 150° 150° 19 kt METAR EHMA 061825Z AUTO 15019KT 9999 NCD 14/09 Q1026
19:55
V
14 °C 10 km+ - Var Var 18 kt METAR EHMA 061755Z AUTO VRB18KT 9999 NCD 14/09 Q1026
19:25
V
14 °C 10 km+ - 210° 210° 20 kt METAR EHMA 061725Z AUTO 21020KT 9999 NCD 14/09 Q1026
18:55
V
15 °C 10 km+ - 220° 220° 20 kt METAR EHMA 061655Z AUTO 22020KT 9999 NCD 15/09 Q1026
18:25
L
15 °C 0 m - 220° 220° 20 kt METAR EHMA 061625Z AUTO 22020KT //// // NCD 15/09 Q1026 RE//
17:55
L
15 °C 0 m - 230° 230° 20 kt METAR EHMA 061555Z AUTO 23020KT //// // NCD 15/09 Q1026 RE//
17:25
L
15 °C 0 m - 230° 230° 23 kt METAR EHMA 061525Z AUTO 23023KT //// // NCD 15/09 Q1026 RE//
16:55
L
15 °C 0 m - 230° 230° 21 kt METAR EHMA 061455Z AUTO 23021KT //// // NCD 15/09 Q1026 RE//
16:25
L
15 °C 0 m - 230° 230° 22 kt METAR EHMA 061425Z AUTO 23022KT //// // FEW025 15/09 Q1026 RE//
15:55
L
15 °C 0 m - 230° 230° 21 kt METAR EHMA 061355Z AUTO 23021KT //// // SCT025 SCT029 15/09 Q1026 RE//
15:25
L
15 °C 0 m - 240° 240° 22 kt METAR EHMA 061325Z AUTO 24022KT //// // FEW025 SCT028 15/09 Q1026 RE//
14:55
L
15 °C 0 m - 230° 230° 24 kt METAR EHMA 061255Z AUTO 23024KT //// // FEW026 15/09 Q1026 RE//
14:25
L
15 °C 0 m - 230° 230° 23 kt METAR EHMA 061225Z AUTO 23023KT //// // FEW026 15/09 Q1026 RE//
13:55
L
15 °C 0 m - 240° 240° 22 kt METAR EHMA 061155Z AUTO 24022KT //// // FEW026 15/09 Q1026 RE//
13:25
L
15 °C 0 m - 240° 240° 21 kt METAR EHMA 061125Z AUTO 24021KT //// // FEW026 15/09 Q1026 RE//
12:55
L
14 °C 0 m - 240° 240° 22 kt METAR EHMA 061055Z AUTO 24022KT //// // FEW022 14/09 Q1026 RE//
12:25
L
14 °C 0 m - 240° 240° 21 kt METAR EHMA 061025Z AUTO 24021KT //// // FEW022 14/10 Q1026 RE//
11:55
L
14 °C 0 m - 240° 240° 21 kt METAR EHMA 060955Z AUTO 24021KT //// // FEW029 14/09 Q1025 RE//
11:25
L
14 °C 0 m - 240° 240° 21 kt METAR EHMA 060925Z AUTO 24021KT //// // FEW029 14/09 Q1025 RE//
10:55
L
14 °C 0 m - 250° 250° 19 kt METAR EHMA 060855Z AUTO 25019KT //// // NCD 14/09 Q1025 RE//
10:25
L
14 °C 0 m - 250° 250° 20 kt METAR EHMA 060825Z AUTO 25020KT //// // NCD 14/09 Q1024 RE//
09:55
L
14 °C 0 m - 250° 250° 19 kt METAR EHMA 060755Z AUTO 25019KT //// // FEW028 14/09 Q1024 RE//
09:25
L
14 °C 0 m - 250° 250° 18 kt METAR EHMA 060725Z AUTO 25018KT //// // FEW026/// SCT032/// 14/09 Q1023
08:55
V
14 °C 10 km+ - 250° 250° 19 kt METAR EHMA 060655Z AUTO 25019KT 9999 FEW025 14/09 Q1023
08:25
V
14 °C 10 km+ - 270° 270° 23 kt METAR EHMA 060625Z AUTO 27023KT 9999 FEW024 14/09 Q1022
07:55
V
14 °C 10 km+ - 270° 270° 22 kt METAR EHMA 060555Z AUTO 27022KT 9999 FEW024 14/09 Q1022
07:25
V
14 °C 10 km+ - 270° 270° 23 kt METAR EHMA 060525Z AUTO 27023KT 9999 FEW027 14/09 Q1021
06:55
V
14 °C 10 km+ - 270° 270° 25 kt METAR EHMA 060455Z AUTO 27025KT 9999 FEW026 SCT048 14/08 Q1021
06:25
V
14 °C 10 km+ - 270° 270° 26 kt METAR EHMA 060425Z AUTO 27026KT 9999 FEW026 SCT034 14/09 Q1020
05:55
V
14 °C 10 km+ - 270° 270° 25 kt METAR EHMA 060355Z AUTO 27025KT 9999 FEW026 SCT047 14/09 Q1020
05:25
V
15 °C 10 km+ - 270° 270° 27 kt METAR EHMA 060325Z AUTO 27027KT 9999 FEW031 SCT048 15/08 Q1019
04:55
V
15 °C 10 km+ - 270° 270° 28 kt METAR EHMA 060255Z AUTO 27028KT 9999 FEW031 SCT049 15/08 Q1019
04:25
V
15 °C 10 km+ - 280° 280° 29 kt METAR EHMA 060225Z AUTO 28029KT 9999 FEW035 15/07 Q1018
03:55
V
15 °C 10 km+ - 270° 270° 31 kt METAR EHMA 060155Z AUTO 27031KT 9999 FEW036 15/08 Q1017
03:25
V
15 °C 10 km+ - 270° 270° 29 kt METAR EHMA 060125Z AUTO 27029KT 9999 FEW034 15/08 Q1017
02:55
V
15 °C 10 km+ - 270° 270° 29 kt METAR EHMA 060055Z AUTO 27029KT 9999 FEW034 15/08 Q1016
02:25
V
15 °C 10 km+ - 270° 270° 27 kt METAR EHMA 060025Z AUTO 27027KT 9999 FEW023/// 15/10 Q1016
01:55
V
15 °C 10 km+ - 280° 280° 25 kt METAR EHMA 052355Z AUTO 28025KT 9999 FEW022 15/10 Q1015
01:25
V
15 °C 10 km+ - 260° 260° 24 kt METAR EHMA 052325Z AUTO 26024KT 9999 FEW022 SCT026 15/11 Q1015
00:55
V
15 °C 10 km+ - 250° 250° 22 kt METAR EHMA 052255Z AUTO 25022KT 9999 FEW025 15/11 Q1015
00:25
V
15 °C 10 km+ 4.700 ft 240° 240° 17 kt METAR EHMA 052225Z AUTO 24017KT 9999 FEW025 BKN047 15/12 Q1014

5 października 2022

Czas Kod Pogoda Temp. Widoczność Sufit Wiatr METAR/SPECI
23:55
V
14 °C 10 km+ - 260° 260° 22 kt METAR EHMA 052155Z AUTO 26022KT 9999 FEW035 SCT047 14/11 Q1014
23:25
V
15 °C 10 km+ - 260° 260° 21 kt METAR EHMA 052125Z AUTO 26021KT 9999 FEW020 15/11 Q1014
22:55
V
15 °C 10 km+ - 250° 250° 22 kt METAR EHMA 052055Z AUTO 25022KT 9999 FEW020 15/12 Q1013
22:25
V
14 °C 10 km+ - 240° 240° 18 kt METAR EHMA 052025Z AUTO 24018KT 9999 FEW010 14/13 Q1012
21:55
V
14 °C 10 km+ 3.700 ft 250° 250° 17 kt METAR EHMA 051955Z AUTO 25017KT 9999 FEW006 FEW015CB SCT017 BKN037 14/13 Q1011
21:25
L
14 °C 0 m 3.200 ft 260° 260° 18 kt METAR EHMA 051925Z AUTO 26018KT //// // FEW001 SCT017 BKN032 14/13 Q1011 RE//
20:55
I
14 °C 2,3 km 2.100 ft 290° 290° 25 kt METAR EHMA 051855Z AUTO 29025KT 2300 -SHRA FEW001 SCT018 BKN021 14/13 Q1010 RERA REDZ
20:25
M
16 °C 10 km+ 2.100 ft 200° 200° 29 kt METAR EHMA 051825Z AUTO 20029KT 9999 SCT017 BKN021 BKN029 16/13 Q1008 REDZ
19:55
M
16 °C 10 km+ 2.000 ft Var Var 29 kt METAR EHMA 051755Z AUTO VRB29KT 9999 -RADZ FEW017 OVC020 16/13 Q1008
19:25
M
17 °C 10 km+ 2.200 ft 200° 200° 29 kt METAR EHMA 051725Z AUTO 20029KT 9999 FEW017 BKN022 OVC025 17/12 Q1008
18:55
M
17 °C 10 km+ 2.700 ft Var Var 29 kt METAR EHMA 051655Z AUTO VRB29KT 9999 SCT024 BKN027 OVC032 17/13 Q1008
18:25
M
16 °C 10 km+ 2.600 ft Var Var 28 kt METAR EHMA 051625Z AUTO VRB28KT 9999 FEW022 BKN026 BKN030 16/12 Q1008
17:55
M
17 °C 10 km+ 2.900 ft Var Var 29 kt METAR EHMA 051555Z AUTO VRB29KT 9999 FEW022 SCT026 BKN029 17/12 Q1008
15:55
M
16 °C 10 km+ 2.800 ft Var Var 32 kt METAR EHMA 051355Z AUTO VRB32KT 9999 FEW022 BKN028 16/12 Q1008
15:25
M
16 °C 10 km+ 2.500 ft Var Var 30 kt METAR EHMA 051325Z AUTO VRB30KT 9999 FEW020 BKN025 OVC029 16/12 Q1008
14:55
M
16 °C 10 km+ 2.400 ft 200° 200° 31 kt METAR EHMA 051255Z AUTO 20031KT 9999 FEW020 OVC024 16/12 Q1009
14:25
M
16 °C 10 km+ 2.600 ft Var Var 30 kt METAR EHMA 051225Z AUTO VRB30KT 9999 SCT022 BKN026 OVC029 16/12 Q1009
13:55
M
16 °C 10 km+ 2.700 ft Var Var 26 kt METAR EHMA 051155Z AUTO VRB26KT 9999 FEW021 OVC027 16/12 Q1009
13:25
M
16 °C 10 km+ 2.600 ft 190° 190° 29 kt METAR EHMA 051125Z AUTO 19029KT 9999 FEW020 OVC026 16/12 Q1010
12:55
M
16 °C 10 km+ 2.400 ft 190° 190° 31 kt METAR EHMA 051055Z AUTO 19031KT 9999 SCT021 BKN024 16/12 Q1009
12:25
V
16 °C 10 km+ - Var Var 28 kt METAR EHMA 051025Z AUTO VRB28KT 9999 SCT021 16/12 Q1010
11:55
V
16 °C 10 km+ - 190° 190° 31 kt METAR EHMA 050955Z AUTO 19031KT 9999 FEW025 SCT028 16/12 Q1010
Starsze dane

My i osoby trzecie śledzimy twoje zachowanie w internecie na naszej stronie za pomocą plików cookie. Jeśli kontynuujesz, zakładamy, że zgadzasz się z naszą polityką plików cookie. Dowiedz się więcej